sensor_id;sensor_type;location;lat;lon;timestamp;P1;durP1;ratioP1;P2;durP2;ratioP2
49840;SDS011;35738;49.890;5.930;2023-02-28T00:00:33;4.13;;;1.60;;
49840;SDS011;35738;49.890;5.930;2023-02-28T00:03:00;3.00;;;1.70;;
49840;SDS011;35738;49.890;5.930;2023-02-28T00:05:27;2.23;;;1.60;;
49840;SDS011;35738;49.890;5.930;2023-02-28T00:07:53;2.63;;;1.43;;
49840;SDS011;35738;49.890;5.930;2023-02-28T00:10:24;1.77;;;1.20;;
49840;SDS011;35738;49.890;5.930;2023-02-28T00:12:53;1.70;;;1.60;;
49840;SDS011;35738;49.890;5.930;2023-02-28T00:15:20;2.50;;;1.73;;
49840;SDS011;35738;49.890;5.930;2023-02-28T00:17:46;2.13;;;1.93;;
49840;SDS011;35738;49.890;5.930;2023-02-28T00:20:13;2.27;;;1.90;;
49840;SDS011;35738;49.890;5.930;2023-02-28T00:22:40;1.40;;;1.40;;
49840;SDS011;35738;49.890;5.930;2023-02-28T00:25:07;2.70;;;2.50;;
49840;SDS011;35738;49.890;5.930;2023-02-28T00:27:34;2.10;;;1.33;;
49840;SDS011;35738;49.890;5.930;2023-02-28T00:30:01;2.77;;;1.60;;
49840;SDS011;35738;49.890;5.930;2023-02-28T00:32:28;6.13;;;3.47;;
49840;SDS011;35738;49.890;5.930;2023-02-28T00:34:54;4.57;;;2.90;;
49840;SDS011;35738;49.890;5.930;2023-02-28T00:37:21;3.77;;;2.63;;
49840;SDS011;35738;49.890;5.930;2023-02-28T00:39:47;4.87;;;3.30;;
49840;SDS011;35738;49.890;5.930;2023-02-28T00:42:14;6.07;;;3.63;;
49840;SDS011;35738;49.890;5.930;2023-02-28T00:44:40;2.30;;;1.90;;
49840;SDS011;35738;49.890;5.930;2023-02-28T00:47:06;1.87;;;1.77;;
49840;SDS011;35738;49.890;5.930;2023-02-28T00:49:33;3.23;;;2.90;;
49840;SDS011;35738;49.890;5.930;2023-02-28T00:51:59;3.23;;;1.83;;
49840;SDS011;35738;49.890;5.930;2023-02-28T00:54:26;3.63;;;2.83;;
49840;SDS011;35738;49.890;5.930;2023-02-28T00:56:52;2.50;;;1.87;;
49840;SDS011;35738;49.890;5.930;2023-02-28T00:59:18;4.00;;;2.70;;
49840;SDS011;35738;49.890;5.930;2023-02-28T01:01:45;2.40;;;2.20;;
49840;SDS011;35738;49.890;5.930;2023-02-28T01:04:12;1.70;;;1.60;;
49840;SDS011;35738;49.890;5.930;2023-02-28T01:06:39;3.43;;;2.47;;
49840;SDS011;35738;49.890;5.930;2023-02-28T01:09:05;2.87;;;2.37;;
49840;SDS011;35738;49.890;5.930;2023-02-28T01:11:32;3.60;;;3.30;;
49840;SDS011;35738;49.890;5.930;2023-02-28T01:13:59;2.93;;;2.70;;
49840;SDS011;35738;49.890;5.930;2023-02-28T01:16:25;2.60;;;2.30;;
49840;SDS011;35738;49.890;5.930;2023-02-28T01:18:52;2.20;;;2.00;;
49840;SDS011;35738;49.890;5.930;2023-02-28T01:21:19;4.23;;;2.20;;
49840;SDS011;35738;49.890;5.930;2023-02-28T01:23:46;3.13;;;2.63;;
49840;SDS011;35738;49.890;5.930;2023-02-28T01:26:14;2.37;;;2.17;;
49840;SDS011;35738;49.890;5.930;2023-02-28T01:28:41;3.37;;;2.77;;
49840;SDS011;35738;49.890;5.930;2023-02-28T01:31:07;2.53;;;2.20;;
49840;SDS011;35738;49.890;5.930;2023-02-28T01:33:35;2.40;;;2.20;;
49840;SDS011;35738;49.890;5.930;2023-02-28T01:36:04;2.97;;;2.37;;
49840;SDS011;35738;49.890;5.930;2023-02-28T01:38:31;3.60;;;3.07;;
49840;SDS011;35738;49.890;5.930;2023-02-28T01:40:57;2.60;;;2.10;;
49840;SDS011;35738;49.890;5.930;2023-02-28T01:43:25;2.97;;;2.43;;
49840;SDS011;35738;49.890;5.930;2023-02-28T01:45:52;3.27;;;2.60;;
49840;SDS011;35738;49.890;5.930;2023-02-28T01:48:21;2.13;;;1.93;;
49840;SDS011;35738;49.890;5.930;2023-02-28T01:50:48;2.13;;;2.00;;
49840;SDS011;35738;49.890;5.930;2023-02-28T01:53:19;3.97;;;3.37;;
49840;SDS011;35738;49.890;5.930;2023-02-28T01:55:48;3.70;;;2.97;;
49840;SDS011;35738;49.890;5.930;2023-02-28T01:58:16;5.20;;;2.27;;
49840;SDS011;35738;49.890;5.930;2023-02-28T02:00:43;3.50;;;3.10;;
49840;SDS011;35738;49.890;5.930;2023-02-28T02:03:10;2.43;;;2.10;;
49840;SDS011;35738;49.890;5.930;2023-02-28T02:05:38;5.63;;;4.23;;
49840;SDS011;35738;49.890;5.930;2023-02-28T02:08:05;6.40;;;4.67;;
49840;SDS011;35738;49.890;5.930;2023-02-28T02:10:45;4.47;;;3.17;;
49840;SDS011;35738;49.890;5.930;2023-02-28T02:15:53;4.77;;;3.00;;
49840;SDS011;35738;49.890;5.930;2023-02-28T02:29:09;2.10;;;2.00;;
49840;SDS011;35738;49.890;5.930;2023-02-28T02:37:00;3.00;;;2.10;;
49840;SDS011;35738;49.890;5.930;2023-02-28T02:41:55;4.20;;;2.20;;
49840;SDS011;35738;49.890;5.930;2023-02-28T02:47:29;2.53;;;2.17;;
49840;SDS011;35738;49.890;5.930;2023-02-28T02:49:57;6.47;;;2.40;;
49840;SDS011;35738;49.890;5.930;2023-02-28T02:52:28;3.83;;;2.13;;
49840;SDS011;35738;49.890;5.930;2023-02-28T02:54:55;2.83;;;2.53;;
49840;SDS011;35738;49.890;5.930;2023-02-28T02:57:23;2.63;;;2.23;;
49840;SDS011;35738;49.890;5.930;2023-02-28T02:59:51;2.47;;;2.30;;
49840;SDS011;35738;49.890;5.930;2023-02-28T03:02:19;3.03;;;2.47;;
49840;SDS011;35738;49.890;5.930;2023-02-28T03:04:48;2.50;;;2.07;;
49840;SDS011;35738;49.890;5.930;2023-02-28T03:07:16;3.47;;;2.40;;
49840;SDS011;35738;49.890;5.930;2023-02-28T03:09:52;3.17;;;2.17;;
49840;SDS011;35738;49.890;5.930;2023-02-28T03:12:19;4.07;;;2.40;;
49840;SDS011;35738;49.890;5.930;2023-02-28T03:14:56;2.63;;;2.10;;
49840;SDS011;35738;49.890;5.930;2023-02-28T03:20:14;3.93;;;2.37;;
49840;SDS011;35738;49.890;5.930;2023-02-28T03:25:13;4.57;;;2.30;;
49840;SDS011;35738;49.890;5.930;2023-02-28T03:30:15;3.27;;;2.43;;
49840;SDS011;35738;49.890;5.930;2023-02-28T03:32:50;4.13;;;2.30;;
49840;SDS011;35738;49.890;5.930;2023-02-28T03:35:23;3.17;;;2.87;;
49840;SDS011;35738;49.890;5.930;2023-02-28T03:37:52;4.47;;;2.90;;
49840;SDS011;35738;49.890;5.930;2023-02-28T03:40:23;4.07;;;2.53;;
49840;SDS011;35738;49.890;5.930;2023-02-28T03:42:52;4.40;;;2.87;;
49840;SDS011;35738;49.890;5.930;2023-02-28T03:45:21;3.63;;;2.60;;
49840;SDS011;35738;49.890;5.930;2023-02-28T03:47:51;2.80;;;2.60;;
49840;SDS011;35738;49.890;5.930;2023-02-28T03:50:27;2.77;;;2.57;;
49840;SDS011;35738;49.890;5.930;2023-02-28T03:55:26;3.50;;;2.80;;
49840;SDS011;35738;49.890;5.930;2023-02-28T03:58:10;5.03;;;2.90;;
49840;SDS011;35738;49.890;5.930;2023-02-28T04:00:39;4.50;;;3.20;;
49840;SDS011;35738;49.890;5.930;2023-02-28T04:03:06;4.20;;;2.80;;
49840;SDS011;35738;49.890;5.930;2023-02-28T04:05:33;6.77;;;3.57;;
49840;SDS011;35738;49.890;5.930;2023-02-28T04:08:10;4.37;;;3.10;;
49840;SDS011;35738;49.890;5.930;2023-02-28T04:10:36;4.87;;;3.30;;
49840;SDS011;35738;49.890;5.930;2023-02-28T04:13:02;6.77;;;3.30;;
49840;SDS011;35738;49.890;5.930;2023-02-28T04:15:29;5.07;;;3.10;;
49840;SDS011;35738;49.890;5.930;2023-02-28T04:17:55;6.30;;;3.60;;
49840;SDS011;35738;49.890;5.930;2023-02-28T04:20:21;6.47;;;3.50;;
49840;SDS011;35738;49.890;5.930;2023-02-28T04:22:48;5.33;;;3.17;;
49840;SDS011;35738;49.890;5.930;2023-02-28T04:25:14;5.27;;;3.40;;
49840;SDS011;35738;49.890;5.930;2023-02-28T04:27:40;4.70;;;3.57;;
49840;SDS011;35738;49.890;5.930;2023-02-28T04:30:07;3.80;;;3.40;;
49840;SDS011;35738;49.890;5.930;2023-02-28T04:32:33;4.07;;;3.30;;
49840;SDS011;35738;49.890;5.930;2023-02-28T04:35:00;5.03;;;3.80;;
49840;SDS011;35738;49.890;5.930;2023-02-28T04:37:26;5.07;;;3.40;;
49840;SDS011;35738;49.890;5.930;2023-02-28T04:39:54;5.33;;;3.50;;
49840;SDS011;35738;49.890;5.930;2023-02-28T04:42:21;7.00;;;4.03;;
49840;SDS011;35738;49.890;5.930;2023-02-28T04:44:47;6.00;;;3.60;;
49840;SDS011;35738;49.890;5.930;2023-02-28T04:47:14;5.60;;;3.43;;
49840;SDS011;35738;49.890;5.930;2023-02-28T04:49:40;6.77;;;3.60;;
49840;SDS011;35738;49.890;5.930;2023-02-28T04:52:07;6.63;;;4.00;;
49840;SDS011;35738;49.890;5.930;2023-02-28T04:54:34;4.90;;;3.90;;
49840;SDS011;35738;49.890;5.930;2023-02-28T04:57:00;6.37;;;3.83;;
49840;SDS011;35738;49.890;5.930;2023-02-28T04:59:27;5.93;;;3.90;;
49840;SDS011;35738;49.890;5.930;2023-02-28T05:01:53;8.60;;;4.27;;
49840;SDS011;35738;49.890;5.930;2023-02-28T05:04:20;6.33;;;3.93;;
49840;SDS011;35738;49.890;5.930;2023-02-28T05:06:46;5.63;;;4.47;;
49840;SDS011;35738;49.890;5.930;2023-02-28T05:09:13;4.80;;;4.30;;
49840;SDS011;35738;49.890;5.930;2023-02-28T05:11:39;4.43;;;3.83;;
49840;SDS011;35738;49.890;5.930;2023-02-28T05:14:08;6.77;;;4.53;;
49840;SDS011;35738;49.890;5.930;2023-02-28T05:16:35;5.53;;;4.50;;
49840;SDS011;35738;49.890;5.930;2023-02-28T05:19:01;6.60;;;4.03;;
49840;SDS011;35738;49.890;5.930;2023-02-28T05:23:58;7.33;;;4.60;;
49840;SDS011;35738;49.890;5.930;2023-02-28T05:26:26;6.47;;;4.47;;
49840;SDS011;35738;49.890;5.930;2023-02-28T05:28:52;8.97;;;4.70;;
49840;SDS011;35738;49.890;5.930;2023-02-28T05:31:19;5.27;;;4.60;;
49840;SDS011;35738;49.890;5.930;2023-02-28T05:33:46;6.63;;;4.50;;
49840;SDS011;35738;49.890;5.930;2023-02-28T05:36:13;7.00;;;4.47;;
49840;SDS011;35738;49.890;5.930;2023-02-28T05:38:40;8.97;;;4.93;;
49840;SDS011;35738;49.890;5.930;2023-02-28T05:41:09;6.80;;;4.53;;
49840;SDS011;35738;49.890;5.930;2023-02-28T05:43:36;6.13;;;4.63;;
49840;SDS011;35738;49.890;5.930;2023-02-28T05:46:06;8.60;;;4.87;;
49840;SDS011;35738;49.890;5.930;2023-02-28T05:48:33;6.33;;;4.57;;
49840;SDS011;35738;49.890;5.930;2023-02-28T05:51:01;8.30;;;5.10;;
49840;SDS011;35738;49.890;5.930;2023-02-28T05:53:28;6.73;;;5.10;;
49840;SDS011;35738;49.890;5.930;2023-02-28T05:55:55;6.67;;;5.37;;
49840;SDS011;35738;49.890;5.930;2023-02-28T05:58:22;9.07;;;5.73;;
49840;SDS011;35738;49.890;5.930;2023-02-28T06:00:48;7.43;;;5.37;;
49840;SDS011;35738;49.890;5.930;2023-02-28T06:03:15;9.27;;;5.17;;
49840;SDS011;35738;49.890;5.930;2023-02-28T06:05:41;9.90;;;5.13;;
49840;SDS011;35738;49.890;5.930;2023-02-28T06:08:08;9.23;;;5.30;;
49840;SDS011;35738;49.890;5.930;2023-02-28T06:10:34;8.23;;;5.40;;
49840;SDS011;35738;49.890;5.930;2023-02-28T06:13:02;9.60;;;5.40;;
49840;SDS011;35738;49.890;5.930;2023-02-28T06:15:28;10.07;;;5.73;;
49840;SDS011;35738;49.890;5.930;2023-02-28T06:17:55;11.93;;;6.30;;
49840;SDS011;35738;49.890;5.930;2023-02-28T06:20:25;14.33;;;8.47;;
49840;SDS011;35738;49.890;5.930;2023-02-28T06:22:55;241.90;;;99.13;;
49840;SDS011;35738;49.890;5.930;2023-02-28T06:25:25;60.23;;;28.80;;
49840;SDS011;35738;49.890;5.930;2023-02-28T06:27:51;114.37;;;57.20;;
49840;SDS011;35738;49.890;5.930;2023-02-28T06:30:18;123.00;;;64.37;;
49840;SDS011;35738;49.890;5.930;2023-02-28T06:32:44;91.23;;;54.17;;
49840;SDS011;35738;49.890;5.930;2023-02-28T06:35:11;59.67;;;35.77;;
49840;SDS011;35738;49.890;5.930;2023-02-28T06:37:37;24.27;;;16.90;;
49840;SDS011;35738;49.890;5.930;2023-02-28T06:40:07;21.20;;;16.20;;
49840;SDS011;35738;49.890;5.930;2023-02-28T06:42:33;10.17;;;6.83;;
49840;SDS011;35738;49.890;5.930;2023-02-28T06:45:00;14.63;;;9.80;;
49840;SDS011;35738;49.890;5.930;2023-02-28T06:47:30;12.10;;;7.13;;
49840;SDS011;35738;49.890;5.930;2023-02-28T06:49:57;12.70;;;9.03;;
49840;SDS011;35738;49.890;5.930;2023-02-28T06:52:23;14.47;;;8.60;;
49840;SDS011;35738;49.890;5.930;2023-02-28T06:54:49;13.33;;;8.40;;
49840;SDS011;35738;49.890;5.930;2023-02-28T06:57:29;11.97;;;8.60;;
49840;SDS011;35738;49.890;5.930;2023-02-28T07:00:00;11.27;;;7.50;;
49840;SDS011;35738;49.890;5.930;2023-02-28T07:02:27;12.20;;;7.73;;
49840;SDS011;35738;49.890;5.930;2023-02-28T07:04:53;11.67;;;7.60;;
49840;SDS011;35738;49.890;5.930;2023-02-28T07:07:20;9.13;;;6.93;;
49840;SDS011;35738;49.890;5.930;2023-02-28T07:09:46;10.33;;;6.40;;
49840;SDS011;35738;49.890;5.930;2023-02-28T07:12:13;13.13;;;9.17;;
49840;SDS011;35738;49.890;5.930;2023-02-28T07:14:39;13.10;;;8.83;;
49840;SDS011;35738;49.890;5.930;2023-02-28T07:17:09;11.97;;;8.60;;
49840;SDS011;35738;49.890;5.930;2023-02-28T07:19:38;13.03;;;9.47;;
49840;SDS011;35738;49.890;5.930;2023-02-28T07:22:05;12.33;;;9.00;;
49840;SDS011;35738;49.890;5.930;2023-02-28T07:24:31;10.43;;;7.57;;
49840;SDS011;35738;49.890;5.930;2023-02-28T07:26:57;9.90;;;5.97;;
49840;SDS011;35738;49.890;5.930;2023-02-28T07:29:25;12.70;;;8.80;;
49840;SDS011;35738;49.890;5.930;2023-02-28T07:31:51;10.33;;;7.90;;
49840;SDS011;35738;49.890;5.930;2023-02-28T07:34:20;8.47;;;6.17;;
49840;SDS011;35738;49.890;5.930;2023-02-28T07:36:46;6.63;;;5.20;;
49840;SDS011;35738;49.890;5.930;2023-02-28T07:39:12;9.83;;;5.60;;
49840;SDS011;35738;49.890;5.930;2023-02-28T07:41:39;6.50;;;5.43;;
49840;SDS011;35738;49.890;5.930;2023-02-28T07:44:10;6.90;;;5.30;;
49840;SDS011;35738;49.890;5.930;2023-02-28T07:46:36;7.23;;;5.37;;
49840;SDS011;35738;49.890;5.930;2023-02-28T07:49:03;16.03;;;9.00;;
49840;SDS011;35738;49.890;5.930;2023-02-28T07:51:30;14.57;;;7.60;;
49840;SDS011;35738;49.890;5.930;2023-02-28T07:53:57;15.10;;;8.73;;
49840;SDS011;35738;49.890;5.930;2023-02-28T07:56:23;12.10;;;7.70;;
49840;SDS011;35738;49.890;5.930;2023-02-28T07:58:50;7.03;;;5.90;;
49840;SDS011;35738;49.890;5.930;2023-02-28T08:01:16;6.73;;;5.70;;
49840;SDS011;35738;49.890;5.930;2023-02-28T08:03:43;5.60;;;4.53;;
49840;SDS011;35738;49.890;5.930;2023-02-28T08:06:15;5.80;;;4.70;;
49840;SDS011;35738;49.890;5.930;2023-02-28T08:08:42;6.10;;;4.70;;
49840;SDS011;35738;49.890;5.930;2023-02-28T08:11:08;7.13;;;5.00;;
49840;SDS011;35738;49.890;5.930;2023-02-28T08:13:34;5.40;;;4.70;;
49840;SDS011;35738;49.890;5.930;2023-02-28T08:16:01;5.77;;;5.10;;
49840;SDS011;35738;49.890;5.930;2023-02-28T08:18:27;5.80;;;4.27;;
49840;SDS011;35738;49.890;5.930;2023-02-28T08:20:54;5.23;;;3.90;;
49840;SDS011;35738;49.890;5.930;2023-02-28T08:23:20;5.07;;;4.50;;
49840;SDS011;35738;49.890;5.930;2023-02-28T08:25:56;7.27;;;5.50;;
49840;SDS011;35738;49.890;5.930;2023-02-28T08:28:22;4.10;;;3.50;;
49840;SDS011;35738;49.890;5.930;2023-02-28T08:30:52;8.23;;;5.87;;
49840;SDS011;35738;49.890;5.930;2023-02-28T08:33:18;8.77;;;4.73;;
49840;SDS011;35738;49.890;5.930;2023-02-28T08:35:44;9.47;;;6.47;;
49840;SDS011;35738;49.890;5.930;2023-02-28T08:38:11;12.83;;;6.87;;
49840;SDS011;35738;49.890;5.930;2023-02-28T08:40:37;5.13;;;3.80;;
49840;SDS011;35738;49.890;5.930;2023-02-28T08:43:04;9.67;;;6.27;;
49840;SDS011;35738;49.890;5.930;2023-02-28T08:45:30;6.83;;;4.90;;
49840;SDS011;35738;49.890;5.930;2023-02-28T08:47:56;4.67;;;4.23;;
49840;SDS011;35738;49.890;5.930;2023-02-28T08:50:23;4.77;;;3.70;;
49840;SDS011;35738;49.890;5.930;2023-02-28T08:52:49;5.53;;;3.73;;
49840;SDS011;35738;49.890;5.930;2023-02-28T08:55:16;4.90;;;4.13;;
49840;SDS011;35738;49.890;5.930;2023-02-28T08:57:42;5.87;;;4.73;;
49840;SDS011;35738;49.890;5.930;2023-02-28T09:00:08;4.60;;;3.80;;
49840;SDS011;35738;49.890;5.930;2023-02-28T09:02:36;4.07;;;3.67;;
49840;SDS011;35738;49.890;5.930;2023-02-28T09:05:03;3.60;;;3.30;;
49840;SDS011;35738;49.890;5.930;2023-02-28T09:07:29;8.40;;;5.57;;
49840;SDS011;35738;49.890;5.930;2023-02-28T09:09:56;5.87;;;4.10;;
49840;SDS011;35738;49.890;5.930;2023-02-28T09:12:24;6.30;;;4.87;;
49840;SDS011;35738;49.890;5.930;2023-02-28T09:14:51;7.70;;;4.17;;
49840;SDS011;35738;49.890;5.930;2023-02-28T09:17:17;5.77;;;3.80;;
49840;SDS011;35738;49.890;5.930;2023-02-28T09:19:44;4.97;;;3.67;;
49840;SDS011;35738;49.890;5.930;2023-02-28T09:22:10;5.00;;;3.70;;
49840;SDS011;35738;49.890;5.930;2023-02-28T09:24:37;3.70;;;3.07;;
49840;SDS011;35738;49.890;5.930;2023-02-28T09:27:07;4.20;;;3.30;;
49840;SDS011;35738;49.890;5.930;2023-02-28T09:29:34;4.83;;;2.67;;
49840;SDS011;35738;49.890;5.930;2023-02-28T09:32:00;3.03;;;2.80;;
49840;SDS011;35738;49.890;5.930;2023-02-28T09:34:27;3.77;;;2.90;;
49840;SDS011;35738;49.890;5.930;2023-02-28T09:36:54;2.70;;;2.50;;
49840;SDS011;35738;49.890;5.930;2023-02-28T09:39:22;3.73;;;3.20;;
49840;SDS011;35738;49.890;5.930;2023-02-28T09:41:50;2.80;;;2.57;;
49840;SDS011;35738;49.890;5.930;2023-02-28T09:44:28;3.33;;;3.00;;
49840;SDS011;35738;49.890;5.930;2023-02-28T09:47:41;4.77;;;3.30;;
49840;SDS011;35738;49.890;5.930;2023-02-28T09:49:42;3.07;;;2.77;;
49840;SDS011;35738;49.890;5.930;2023-02-28T09:52:10;3.47;;;2.80;;
49840;SDS011;35738;49.890;5.930;2023-02-28T09:54:38;5.10;;;3.00;;
49840;SDS011;35738;49.890;5.930;2023-02-28T09:57:14;3.93;;;2.50;;
49840;SDS011;35738;49.890;5.930;2023-02-28T10:07:45;59.20;;;24.73;;
49840;SDS011;35738;49.890;5.930;2023-02-28T10:10:17;11.00;;;5.60;;
49840;SDS011;35738;49.890;5.930;2023-02-28T10:12:45;3.60;;;2.90;;
49840;SDS011;35738;49.890;5.930;2023-02-28T10:15:13;6.70;;;4.40;;
49840;SDS011;35738;49.890;5.930;2023-02-28T10:17:41;11.77;;;7.10;;
49840;SDS011;35738;49.890;5.930;2023-02-28T10:20:21;5.07;;;2.40;;
49840;SDS011;35738;49.890;5.930;2023-02-28T10:23:07;2.90;;;2.30;;
49840;SDS011;35738;49.890;5.930;2023-02-28T10:25:36;14.30;;;8.10;;
49840;SDS011;35738;49.890;5.930;2023-02-28T10:28:13;5.13;;;3.00;;
49840;SDS011;35738;49.890;5.930;2023-02-28T10:30:50;6.50;;;4.97;;
49840;SDS011;35738;49.890;5.930;2023-02-28T10:33:19;4.03;;;3.37;;
49840;SDS011;35738;49.890;5.930;2023-02-28T10:35:46;2.73;;;2.53;;
49840;SDS011;35738;49.890;5.930;2023-02-28T10:38:15;3.00;;;2.80;;
49840;SDS011;35738;49.890;5.930;2023-02-28T10:40:41;4.47;;;4.07;;
49840;SDS011;35738;49.890;5.930;2023-02-28T10:45:52;2.00;;;1.90;;
49840;SDS011;35738;49.890;5.930;2023-02-28T10:56:31;3.97;;;2.43;;
49840;SDS011;35738;49.890;5.930;2023-02-28T11:03:53;5.37;;;2.80;;
49840;SDS011;35738;49.890;5.930;2023-02-28T11:06:20;3.10;;;2.10;;
49840;SDS011;35738;49.890;5.930;2023-02-28T11:08:52;2.87;;;2.60;;
49840;SDS011;35738;49.890;5.930;2023-02-28T11:11:19;3.73;;;2.70;;
49840;SDS011;35738;49.890;5.930;2023-02-28T11:13:46;3.97;;;2.90;;
49840;SDS011;35738;49.890;5.930;2023-02-28T11:16:13;6.33;;;3.03;;
49840;SDS011;35738;49.890;5.930;2023-02-28T11:21:06;2.93;;;2.57;;
49840;SDS011;35738;49.890;5.930;2023-02-28T11:23:35;4.60;;;3.27;;
49840;SDS011;35738;49.890;5.930;2023-02-28T11:26:03;5.13;;;3.33;;
49840;SDS011;35738;49.890;5.930;2023-02-28T11:28:32;3.60;;;3.30;;
49840;SDS011;35738;49.890;5.930;2023-02-28T11:36:10;4.07;;;3.13;;
49840;SDS011;35738;49.890;5.930;2023-02-28T11:38:37;3.63;;;3.10;;
49840;SDS011;35738;49.890;5.930;2023-02-28T11:46:13;4.87;;;3.40;;
49840;SDS011;35738;49.890;5.930;2023-02-28T11:48:51;5.87;;;3.50;;
49840;SDS011;35738;49.890;5.930;2023-02-28T11:51:24;4.97;;;3.60;;
49840;SDS011;35738;49.890;5.930;2023-02-28T11:54:00;4.07;;;3.63;;
49840;SDS011;35738;49.890;5.930;2023-02-28T11:56:44;5.23;;;4.03;;
49840;SDS011;35738;49.890;5.930;2023-02-28T12:02:04;4.00;;;3.60;;
49840;SDS011;35738;49.890;5.930;2023-02-28T12:04:42;4.80;;;3.90;;
49840;SDS011;35738;49.890;5.930;2023-02-28T12:07:49;5.93;;;4.67;;
49840;SDS011;35738;49.890;5.930;2023-02-28T12:12:54;6.67;;;5.50;;
49840;SDS011;35738;49.890;5.930;2023-02-28T12:15:32;5.60;;;4.27;;
49840;SDS011;35738;49.890;5.930;2023-02-28T12:18:06;4.43;;;4.03;;
49840;SDS011;35738;49.890;5.930;2023-02-28T12:20:37;5.83;;;3.80;;
49840;SDS011;35738;49.890;5.930;2023-02-28T12:23:22;5.53;;;4.17;;
49840;SDS011;35738;49.890;5.930;2023-02-28T12:28:20;9.87;;;6.40;;
49840;SDS011;35738;49.890;5.930;2023-02-28T12:30:56;5.77;;;5.13;;
49840;SDS011;35738;49.890;5.930;2023-02-28T12:33:24;6.10;;;4.00;;
49840;SDS011;35738;49.890;5.930;2023-02-28T12:35:56;4.57;;;4.17;;
49840;SDS011;35738;49.890;5.930;2023-02-28T12:38:25;4.03;;;3.70;;
49840;SDS011;35738;49.890;5.930;2023-02-28T12:43:25;5.17;;;4.17;;
49840;SDS011;35738;49.890;5.930;2023-02-28T12:45:55;4.23;;;3.83;;
49840;SDS011;35738;49.890;5.930;2023-02-28T12:50:52;4.67;;;3.97;;
49840;SDS011;35738;49.890;5.930;2023-02-28T12:53:54;8.40;;;4.80;;
49840;SDS011;35738;49.890;5.930;2023-02-28T12:58:50;4.57;;;4.10;;
49840;SDS011;35738;49.890;5.930;2023-02-28T13:01:25;4.57;;;4.10;;
49840;SDS011;35738;49.890;5.930;2023-02-28T13:09:25;17.10;;;9.40;;
49840;SDS011;35738;49.890;5.930;2023-02-28T13:11:52;6.27;;;5.03;;
49840;SDS011;35738;49.890;5.930;2023-02-28T13:19:34;4.83;;;3.77;;
49840;SDS011;35738;49.890;5.930;2023-02-28T13:22:01;4.07;;;3.57;;
49840;SDS011;35738;49.890;5.930;2023-02-28T13:24:36;5.23;;;3.90;;
49840;SDS011;35738;49.890;5.930;2023-02-28T13:29:38;4.90;;;4.00;;
49840;SDS011;35738;49.890;5.930;2023-02-28T13:34:37;6.77;;;5.13;;
49840;SDS011;35738;49.890;5.930;2023-02-28T13:50:37;5.83;;;5.20;;
49840;SDS011;35738;49.890;5.930;2023-02-28T14:06:27;6.63;;;4.43;;
49840;SDS011;35738;49.890;5.930;2023-02-28T14:11:31;5.83;;;4.53;;
49840;SDS011;35738;49.890;5.930;2023-02-28T14:13:58;8.83;;;5.53;;
49840;SDS011;35738;49.890;5.930;2023-02-28T14:16:26;8.43;;;6.60;;
49840;SDS011;35738;49.890;5.930;2023-02-28T14:18:57;4.20;;;3.80;;
49840;SDS011;35738;49.890;5.930;2023-02-28T14:21:26;7.77;;;6.97;;
49840;SDS011;35738;49.890;5.930;2023-02-28T14:31:43;6.67;;;5.57;;
49840;SDS011;35738;49.890;5.930;2023-02-28T14:36:47;13.87;;;10.07;;
49840;SDS011;35738;49.890;5.930;2023-02-28T14:41:41;9.10;;;6.83;;
49840;SDS011;35738;49.890;5.930;2023-02-28T14:44:22;5.43;;;4.03;;
49840;SDS011;35738;49.890;5.930;2023-02-28T14:51:50;5.00;;;4.50;;
49840;SDS011;35738;49.890;5.930;2023-02-28T14:54:27;4.60;;;3.90;;
49840;SDS011;35738;49.890;5.930;2023-02-28T14:56:54;5.27;;;4.23;;
49840;SDS011;35738;49.890;5.930;2023-02-28T14:59:23;4.57;;;4.17;;
49840;SDS011;35738;49.890;5.930;2023-02-28T15:01:51;4.33;;;3.47;;
49840;SDS011;35738;49.890;5.930;2023-02-28T15:04:22;5.93;;;4.00;;
49840;SDS011;35738;49.890;5.930;2023-02-28T15:07:06;9.97;;;6.63;;
49840;SDS011;35738;49.890;5.930;2023-02-28T15:09:33;6.60;;;5.63;;
49840;SDS011;35738;49.890;5.930;2023-02-28T15:11:59;5.57;;;4.13;;
49840;SDS011;35738;49.890;5.930;2023-02-28T15:14:25;4.53;;;3.73;;
49840;SDS011;35738;49.890;5.930;2023-02-28T15:16:58;4.70;;;4.20;;
49840;SDS011;35738;49.890;5.930;2023-02-28T15:19:28;7.23;;;4.43;;
49840;SDS011;35738;49.890;5.930;2023-02-28T15:22:15;6.50;;;4.60;;
49840;SDS011;35738;49.890;5.930;2023-02-28T15:24:47;5.23;;;4.10;;
49840;SDS011;35738;49.890;5.930;2023-02-28T15:27:16;5.17;;;4.73;;
49840;SDS011;35738;49.890;5.930;2023-02-28T15:29:51;5.07;;;3.87;;
49840;SDS011;35738;49.890;5.930;2023-02-28T15:32:23;5.27;;;4.30;;
49840;SDS011;35738;49.890;5.930;2023-02-28T15:34:50;7.37;;;5.07;;
49840;SDS011;35738;49.890;5.930;2023-02-28T15:37:30;4.97;;;4.40;;
49840;SDS011;35738;49.890;5.930;2023-02-28T15:42:32;6.20;;;4.20;;
49840;SDS011;35738;49.890;5.930;2023-02-28T15:44:58;4.33;;;3.93;;
49840;SDS011;35738;49.890;5.930;2023-02-28T15:47:26;5.07;;;4.33;;
49840;SDS011;35738;49.890;5.930;2023-02-28T15:49:59;5.97;;;4.57;;
49840;SDS011;35738;49.890;5.930;2023-02-28T15:54:57;6.17;;;4.40;;
49840;SDS011;35738;49.890;5.930;2023-02-28T15:57:25;6.50;;;4.50;;
49840;SDS011;35738;49.890;5.930;2023-02-28T15:59:54;6.77;;;5.10;;
49840;SDS011;35738;49.890;5.930;2023-02-28T16:02:25;8.00;;;6.57;;
49840;SDS011;35738;49.890;5.930;2023-02-28T16:04:59;6.23;;;4.73;;
49840;SDS011;35738;49.890;5.930;2023-02-28T16:07:26;9.23;;;4.67;;
49840;SDS011;35738;49.890;5.930;2023-02-28T16:09:53;6.27;;;4.93;;
49840;SDS011;35738;49.890;5.930;2023-02-28T16:12:20;6.43;;;4.87;;
49840;SDS011;35738;49.890;5.930;2023-02-28T16:14:48;6.03;;;4.53;;
49840;SDS011;35738;49.890;5.930;2023-02-28T16:17:21;5.70;;;4.90;;
49840;SDS011;35738;49.890;5.930;2023-02-28T16:19:48;6.77;;;4.53;;
49840;SDS011;35738;49.890;5.930;2023-02-28T16:22:14;5.97;;;4.53;;
49840;SDS011;35738;49.890;5.930;2023-02-28T16:24:41;5.73;;;4.73;;
49840;SDS011;35738;49.890;5.930;2023-02-28T16:27:11;7.50;;;5.00;;
49840;SDS011;35738;49.890;5.930;2023-02-28T16:29:42;7.63;;;4.87;;
49840;SDS011;35738;49.890;5.930;2023-02-28T16:32:10;8.83;;;5.30;;
49840;SDS011;35738;49.890;5.930;2023-02-28T16:34:38;6.73;;;5.33;;
49840;SDS011;35738;49.890;5.930;2023-02-28T16:37:10;46.57;;;23.43;;
49840;SDS011;35738;49.890;5.930;2023-02-28T16:39:37;38.23;;;18.97;;
49840;SDS011;35738;49.890;5.930;2023-02-28T16:42:03;9.67;;;6.73;;
49840;SDS011;35738;49.890;5.930;2023-02-28T16:44:31;17.33;;;11.37;;
49840;SDS011;35738;49.890;5.930;2023-02-28T16:47:01;6.67;;;4.67;;
49840;SDS011;35738;49.890;5.930;2023-02-28T16:49:28;55.63;;;20.37;;
49840;SDS011;35738;49.890;5.930;2023-02-28T16:51:54;7.30;;;4.70;;
49840;SDS011;35738;49.890;5.930;2023-02-28T16:54:20;19.73;;;9.97;;
49840;SDS011;35738;49.890;5.930;2023-02-28T16:56:47;7.27;;;5.20;;
49840;SDS011;35738;49.890;5.930;2023-02-28T16:59:15;23.83;;;12.20;;
49840;SDS011;35738;49.890;5.930;2023-02-28T17:01:44;4.97;;;4.40;;
49840;SDS011;35738;49.890;5.930;2023-02-28T17:04:10;6.20;;;5.00;;
49840;SDS011;35738;49.890;5.930;2023-02-28T17:06:37;6.90;;;5.10;;
49840;SDS011;35738;49.890;5.930;2023-02-28T17:09:04;5.83;;;4.60;;
49840;SDS011;35738;49.890;5.930;2023-02-28T17:11:30;5.80;;;4.80;;
49840;SDS011;35738;49.890;5.930;2023-02-28T17:13:57;7.27;;;4.73;;
49840;SDS011;35738;49.890;5.930;2023-02-28T17:18:54;5.00;;;4.50;;
49840;SDS011;35738;49.890;5.930;2023-02-28T17:21:22;6.47;;;4.40;;
49840;SDS011;35738;49.890;5.930;2023-02-28T17:23:48;7.07;;;5.00;;
49840;SDS011;35738;49.890;5.930;2023-02-28T17:26:16;5.60;;;4.67;;
49840;SDS011;35738;49.890;5.930;2023-02-28T17:28:46;7.83;;;5.33;;
49840;SDS011;35738;49.890;5.930;2023-02-28T17:31:13;8.97;;;5.80;;
49840;SDS011;35738;49.890;5.930;2023-02-28T17:33:40;7.33;;;5.30;;